createdAt,value
2017-12-27T15:02:22.572Z,7.70
2017-12-27T15:04:50.747Z,7.63
2017-12-27T15:07:19.292Z,6.43
2017-12-27T15:09:47.757Z,7.60
2017-12-27T15:12:16.497Z,7.43
2017-12-27T15:14:44.511Z,6.80
2017-12-27T15:17:12.501Z,6.53
2017-12-27T15:19:40.523Z,6.70
2017-12-27T15:22:09.255Z,7.97
2017-12-27T15:24:37.237Z,7.20
2017-12-27T15:27:05.224Z,6.40
2017-12-27T15:29:33.210Z,6.80
2017-12-27T15:32:01.202Z,6.60
2017-12-27T15:34:29.937Z,6.77
2017-12-27T15:36:57.898Z,6.30
2017-12-27T15:39:26.725Z,5.53
2017-12-27T15:41:55.207Z,6.10
2017-12-27T15:44:23.161Z,5.80
2017-12-27T15:46:51.118Z,6.60
2017-12-27T15:49:19.064Z,6.50
2017-12-27T15:51:47.050Z,5.60
2017-12-27T15:54:15.022Z,6.07
2017-12-27T15:56:42.997Z,6.00
2017-12-27T15:59:11.006Z,5.40
2017-12-27T16:01:39.796Z,6.23
2017-12-27T16:04:08.606Z,5.63
2017-12-27T16:06:36.609Z,6.03
2017-12-27T16:09:04.667Z,6.10
2017-12-27T16:11:32.658Z,6.80
2017-12-27T16:14:00.637Z,6.03
2017-12-27T16:16:28.616Z,7.93
2017-12-27T16:18:56.609Z,9.80
2017-12-27T16:21:28.125Z,9.53
2017-12-27T16:23:56.297Z,9.77
2017-12-27T16:26:24.292Z,8.70
2017-12-27T16:28:52.334Z,9.53
2017-12-27T16:31:20.335Z,8.60
2017-12-27T16:33:49.602Z,7.67
2017-12-27T16:36:17.611Z,7.50
2017-12-27T16:38:46.323Z,8.43
2017-12-27T16:41:14.317Z,7.30
2017-12-27T16:43:43.233Z,7.53
2017-12-27T16:46:11.196Z,7.13
2017-12-27T16:48:39.164Z,7.47
2017-12-27T16:51:07.133Z,6.37
2017-12-27T16:53:35.086Z,6.20
2017-12-27T16:56:03.577Z,6.50
2017-12-27T16:58:31.562Z,6.73
2017-12-27T17:00:59.540Z,6.50
2017-12-27T17:03:28.210Z,5.23
2017-12-27T17:05:56.611Z,5.70
2017-12-27T17:08:24.594Z,6.80
2017-12-27T17:10:54.303Z,5.80
2017-12-27T17:13:23.870Z,5.57
2017-12-27T17:15:51.926Z,6.70
2017-12-27T17:18:19.897Z,5.63
2017-12-27T17:20:47.871Z,6.13
2017-12-27T17:23:15.837Z,6.10
2017-12-27T17:25:43.798Z,5.10
2017-12-27T17:28:11.762Z,6.50
2017-12-27T17:30:39.731Z,6.17
2017-12-27T17:33:08.009Z,6.57
2017-12-27T17:35:36.910Z,4.63
2017-12-27T17:38:04.882Z,5.30
2017-12-27T17:40:32.810Z,4.23
2017-12-27T17:43:01.548Z,5.13
2017-12-27T17:45:29.529Z,4.93
2017-12-27T17:47:57.517Z,4.63
2017-12-27T17:50:25.486Z,3.83
2017-12-27T17:52:53.481Z,4.53
2017-12-27T17:55:22.214Z,5.10
2017-12-27T17:57:50.235Z,4.83
2017-12-27T18:00:19.067Z,5.07
2017-12-27T18:02:47.031Z,4.53
2017-12-27T18:05:14.997Z,5.20
2017-12-27T18:07:42.978Z,4.70
2017-12-27T18:10:10.930Z,4.70
2017-12-27T18:12:38.911Z,4.20
2017-12-27T18:15:06.875Z,3.93
2017-12-27T18:17:34.853Z,3.87
2017-12-27T18:20:02.821Z,4.30
2017-12-27T18:22:30.809Z,4.37
2017-12-27T18:24:58.806Z,4.60
2017-12-27T18:27:26.781Z,3.73
2017-12-27T18:29:55.509Z,4.00
2017-12-27T18:32:23.526Z,3.47
2017-12-27T18:34:51.482Z,4.03
2017-12-27T18:37:19.460Z,3.43
2017-12-27T18:39:47.402Z,3.40
2017-12-27T18:42:15.378Z,3.20
2017-12-27T18:44:43.450Z,3.13
2017-12-27T18:47:11.492Z,4.10
2017-12-27T18:49:39.515Z,3.50
2017-12-27T18:52:07.534Z,3.00
2017-12-27T18:54:35.521Z,3.37
2017-12-27T18:57:03.489Z,3.80
2017-12-27T18:59:31.541Z,3.10
2017-12-27T19:01:59.555Z,3.70
2017-12-27T19:04:27.571Z,3.30
2017-12-27T19:06:55.581Z,3.70
2017-12-27T19:09:23.613Z,3.07
2017-12-27T19:11:51.560Z,3.70
2017-12-27T19:14:19.503Z,3.20
2017-12-27T19:16:47.471Z,3.20
2017-12-27T19:19:15.494Z,2.80
2017-12-27T19:21:43.461Z,2.80
2017-12-27T19:24:11.433Z,3.00
2017-12-27T19:26:39.443Z,2.73
2017-12-27T19:29:07.430Z,2.87
2017-12-27T19:31:36.315Z,3.80
2017-12-27T19:34:05.294Z,2.63
2017-12-27T19:36:33.282Z,3.03
2017-12-27T19:39:01.501Z,3.00
2017-12-27T19:41:29.497Z,2.73
2017-12-27T19:43:58.246Z,2.57
2017-12-27T19:46:27.218Z,2.70
2017-12-27T19:48:55.192Z,3.20
2017-12-27T19:51:23.702Z,2.83
2017-12-27T19:53:52.105Z,3.00
2017-12-27T19:56:20.129Z,2.90
2017-12-27T19:58:48.875Z,3.67
2017-12-27T20:01:16.871Z,2.93
2017-12-27T20:03:44.922Z,2.40
2017-12-27T20:06:12.902Z,2.60
2017-12-27T20:08:40.870Z,2.30
2017-12-27T20:11:08.852Z,2.10
2017-12-27T20:13:36.820Z,1.83
2017-12-27T20:16:04.856Z,2.40
2017-12-27T20:18:32.852Z,1.80
2017-12-27T20:21:00.852Z,2.37
2017-12-27T20:23:29.595Z,2.33
2017-12-27T20:25:57.634Z,2.30
2017-12-27T20:28:25.596Z,1.97
2017-12-27T20:30:54.564Z,2.20
2017-12-27T20:33:22.549Z,1.90
2017-12-27T20:35:51.311Z,2.07
2017-12-27T20:38:20.570Z,1.93
2017-12-27T20:40:48.548Z,1.97
2017-12-27T20:43:16.487Z,2.00
2017-12-27T20:45:45.313Z,1.90
2017-12-27T20:48:13.353Z,2.00
2017-12-27T20:50:41.390Z,2.00
2017-12-27T20:53:09.423Z,2.13
2017-12-27T20:55:37.396Z,2.07
2017-12-27T20:58:05.370Z,1.80
2017-12-27T21:00:33.385Z,2.00
2017-12-27T21:03:02.102Z,2.43
2017-12-27T21:05:30.050Z,2.37
2017-12-27T21:07:58.007Z,2.37
2017-12-27T21:10:26.750Z,2.40
2017-12-27T21:12:54.683Z,2.80
2017-12-27T21:15:22.659Z,2.90
2017-12-27T21:17:50.598Z,3.00
2017-12-27T21:20:19.368Z,2.93
2017-12-27T21:22:47.345Z,3.03
2017-12-27T21:25:15.314Z,3.20
2017-12-27T21:27:43.272Z,3.13
2017-12-27T21:30:11.277Z,2.97
2017-12-27T21:32:40.010Z,2.90
2017-12-27T21:35:07.976Z,2.70
2017-12-27T21:37:35.960Z,3.30
2017-12-27T21:40:03.964Z,2.90
2017-12-27T21:42:32.689Z,3.43
2017-12-27T21:45:00.701Z,3.27
2017-12-27T21:47:34.306Z,3.40
2017-12-27T21:50:02.254Z,3.80
2017-12-27T21:52:30.198Z,3.57
2017-12-27T21:54:58.181Z,3.47
2017-12-27T21:57:26.161Z,3.33
2017-12-27T21:59:59.741Z,3.80
2017-12-27T22:02:27.796Z,3.60
2017-12-27T22:04:55.764Z,3.80
2017-12-27T22:07:23.722Z,3.27
2017-12-27T22:09:52.475Z,3.47
2017-12-27T22:12:20.468Z,4.50
2017-12-27T22:14:49.249Z,5.17
2017-12-27T22:17:18.020Z,5.07
2017-12-27T22:19:45.966Z,4.80
2017-12-27T22:22:13.968Z,5.13
2017-12-27T22:24:41.984Z,5.10
2017-12-27T22:27:09.970Z,4.60
2017-12-27T22:29:37.957Z,4.90
2017-12-27T22:32:05.929Z,4.40
2017-12-27T22:34:33.887Z,5.47
2017-12-27T22:37:01.853Z,4.70
2017-12-27T22:39:29.821Z,4.23
2017-12-27T22:41:57.777Z,4.43
2017-12-27T22:44:25.726Z,4.73
2017-12-27T22:46:53.702Z,4.67
2017-12-27T22:49:21.654Z,5.10
2017-12-27T22:51:50.372Z,4.07
2017-12-27T22:54:18.351Z,4.20
2017-12-27T22:56:46.362Z,4.30
2017-12-27T22:59:14.386Z,4.10
2017-12-27T23:01:42.339Z,4.23
2017-12-27T23:04:10.283Z,5.57
2017-12-27T23:06:39.070Z,4.80
2017-12-27T23:09:07.810Z,4.60
2017-12-27T23:11:35.790Z,4.40
2017-12-27T23:14:03.772Z,4.70
2017-12-27T23:16:31.739Z,4.10
2017-12-27T23:18:59.699Z,4.20
2017-12-27T23:21:27.689Z,4.67
2017-12-27T23:23:55.664Z,4.53
2017-12-27T23:26:23.662Z,4.80
2017-12-27T23:28:51.618Z,3.87
2017-12-27T23:31:20.381Z,4.17
2017-12-27T23:33:48.353Z,4.70
2017-12-27T23:36:16.306Z,4.70
2017-12-27T23:38:44.302Z,3.67
2017-12-27T23:41:12.585Z,3.80
2017-12-27T23:43:41.460Z,4.30
2017-12-27T23:46:09.454Z,4.00
2017-12-27T23:48:38.210Z,4.10
2017-12-27T23:51:06.179Z,3.93
2017-12-27T23:53:34.157Z,4.13
2017-12-27T23:56:02.143Z,3.77
2017-12-27T23:58:30.881Z,3.77
